Latest Weather Observations for Warburto Point

IDS60801

Issued at 8:41 pm CDT Sunday 24 January 2021 (issued every 10 minutes, with the page automatically refreshed every 10 minutes)

About weather observations | Map of weather stations | Latest weather observations for SA | Other Formats
Station Details ID: 022053 Name: WARBURTO POINT Lat: -34.00 Lon: 137.53 Height: 1.0 m
Data from the previous 72 hours. | See also: Recent months at Warburto Point
Date/Time
CDT
Temp
°C
App
Temp
°C
Dew
Point
°C
Rel
Hum
%
Delta-T
°C
Wind Press
QNH
hPa
Press
MSL
hPa
Rain since
9am
mm
Dir  Spd
km/h
Gust
km/h
Spd
kts
Gust
kts
24/08:30pm - - - - - S 17 20 9 11 - - -
24/08:00pm - - - - - SSW 19 24 10 13 - - -
24/07:30pm - - - - - SSW 24 30 13 16 - - -
24/07:00pm - - - - - SSW 22 28 12 15 - - -
24/06:30pm - - - - - SW 22 28 12 15 - - -
24/06:00pm - - - - - SSW 20 28 11 15 - - -
24/05:30pm - - - - - SSW 19 26 10 14 - - -
24/05:00pm - - - - - SW 22 28 12 15 - - -
24/04:30pm - - - - - N 30 35 16 19 - - -
24/04:00pm - - - - - N 30 35 16 19 - - -
24/03:30pm - - - - - NNE 30 35 16 19 - - -
24/03:00pm - - - - - NNE 32 35 17 19 - - -
24/02:30pm - - - - - NNE 30 33 16 18 - - -
24/02:00pm - - - - - NNE 26 30 14 16 - - -
24/01:30pm - - - - - NNE 28 30 15 16 - - -
24/01:00pm - - - - - NNE 28 32 15 17 - - -
24/12:30pm - - - - - NNE 24 30 13 16 - - -
24/12:00pm - - - - - NNE 28 32 15 17 - - -
24/11:30am - - - - - N 26 30 14 16 - - -
24/11:00am - - - - - N 22 28 12 15 - - -
24/10:00am - - - - - NNE 24 30 13 16 - - -
24/09:30am - - - - - - - - - - - - -
24/09:00am - - - - - NNE 17 22 9 12 - - -
24/08:30am - - - - - NNE 20 24 11 13 - - -
24/08:00am - - - - - NE 19 24 10 13 - - -
24/07:30am - - - - - NE 19 22 10 12 - - -
24/07:00am - - - - - NE 20 22 11 12 - - -
24/06:30am - - - - - NE 17 22 9 12 - - -
24/06:00am - - - - - ENE 19 24 10 13 - - -
24/05:30am - - - - - NE 17 22 9 12 - - -
24/05:00am - - - - - NE 19 22 10 12 - - -
24/04:30am - - - - - NE 17 19 9 10 - - -
24/04:00am - - - - - NE 15 17 8 9 - - -
24/03:30am - - - - - NE 17 20 9 11 - - -
24/03:00am - - - - - ENE 19 22 10 12 - - -
24/02:30am - - - - - E 22 28 12 15 - - -
24/02:00am - - - - - E 22 28 12 15 - - -
24/01:30am - - - - - ESE 19 24 10 13 - - -
24/01:00am - - - - - ESE 17 20 9 11 - - -
24/12:30am - - - - - ESE 15 19 8 10 - - -
24/12:00am - - - - - ESE 17 20 9 11 - - -
 
Date/Time
CDT
Temp
°C
App
Temp
°C
Dew
Point
°C
Rel
Hum
%
Delta-T
°C
Wind Press
QNH
hPa
Press
MSL
hPa
Rain since
9am
mm
Dir  Spd
km/h
Gust
km/h
Spd
kts
Gust
kts
23/11:30pm - - - - - ESE 17 22 9 12 - - -
23/11:00pm - - - - - ESE 24 32 13 17 - - -
23/10:30pm - - - - - ESE 20 26 11 14 - - -
23/10:00pm - - - - - ESE 19 22 10 12 - - -
23/09:30pm - - - - - ESE 20 26 11 14 - - -
23/09:00pm - - - - - SE 17 22 9 12 - - -
23/08:30pm - - - - - SE 22 28 12 15 - - -
23/08:00pm - - - - - SSE 20 24 11 13 - - -
23/07:30pm - - - - - S 20 26 11 14 - - -
23/07:00pm - - - - - SSW 20 28 11 15 - - -
23/06:30pm - - - - - SW 17 22 9 12 - - -
23/06:00pm - - - - - SW 11 11 6 6 - - -
23/05:30pm - - - - - SW 11 13 6 7 - - -
23/05:00pm - - - - - NW 9 11 5 6 - - -
23/04:30pm - - - - - NW 9 11 5 6 - - -
23/04:00pm - - - - - NW 11 13 6 7 - - -
23/03:30pm - - - - - WNW 9 11 5 6 - - -
23/03:00pm - - - - - WNW 9 13 5 7 - - -
23/02:30pm - - - - - WNW 9 11 5 6 - - -
23/02:00pm - - - - - WNW 11 15 6 8 - - -
23/01:30pm - - - - - NNW 11 13 6 7 - - -
23/01:00pm - - - - - NNW 11 15 6 8 - - -
23/12:30pm - - - - - NNW 13 17 7 9 - - -
23/12:00pm - - - - - NNW 15 17 8 9 - - -
23/11:30am - - - - - NW 13 15 7 8 - - -
23/11:00am - - - - - NNW 11 15 6 8 - - -
23/10:30am - - - - - NNW 13 17 7 9 - - -
23/10:00am - - - - - NNE 11 15 6 8 - - -
23/09:30am - - - - - NNE 15 17 8 9 - - -
23/09:00am - - - - - NE 15 19 8 10 - - -
23/08:30am - - - - - NE 15 19 8 10 - - -
23/08:00am - - - - - ENE 17 19 9 10 - - -
23/07:30am - - - - - E 6 9 3 5 - - -
23/07:00am - - - - - ENE 17 19 9 10 - - -
23/06:30am - - - - - E 17 19 9 10 - - -
23/06:00am - - - - - E 17 19 9 10 - - -
23/05:30am - - - - - ENE 20 22 11 12 - - -
23/05:00am - - - - - ENE 15 17 8 9 - - -
23/04:30am - - - - - SE 9 13 5 7 - - -
23/04:00am - - - - - SE 11 13 6 7 - - -
23/03:30am - - - - - SE 7 9 4 5 - - -
23/03:00am - - - - - SE 11 13 6 7 - - -
23/02:30am - - - - - SE 7 9 4 5 - - -
23/02:00am - - - - - SE 6 11 3 6 - - -
23/01:30am - - - - - SE 7 9 4 5 - - -
23/01:00am - - - - - SE 7 9 4 5 - - -
23/12:30am - - - - - SE 13 17 7 9 - - -
23/12:00am - - - - - SSE 13 17 7 9 - - -
 
Date/Time
CDT
Temp
°C
App
Temp
°C
Dew
Point
°C
Rel
Hum
%
Delta-T
°C
Wind Press
QNH
hPa
Press
MSL
hPa
Rain since
9am
mm
Dir  Spd
km/h
Gust
km/h
Spd
kts
Gust
kts
22/11:30pm - - - - - SSE 13 17 7 9 - - -
22/11:00pm - - - - - SSE 15 19 8 10 - - -
22/10:30pm - - - - - SSE 19 24 10 13 - - -
22/10:00pm - - - - - SSE 17 22 9 12 - - -
22/09:30pm - - - - - SE 17 20 9 11 - - -
22/09:00pm - - - - - ESE 17 19 9 10 - - -
22/08:30pm - - - - - S 9 13 5 7 - - -
22/08:00pm - - - - - S 15 19 8 10 - - -
22/07:30pm - - - - - S 20 24 11 13 - - -
22/07:00pm - - - - - SSW 22 30 12 16 - - -
22/06:30pm - - - - - SSW 30 37 16 20 - - -
22/06:00pm - - - - - SW 28 35 15 19 - - -
22/05:30pm - - - - - SW 28 35 15 19 - - -
22/05:00pm - - - - - SSW 28 33 15 18 - - -
22/04:30pm - - - - - SW 30 39 16 21 - - -
22/04:00pm - - - - - SW 32 39 17 21 - - -
22/03:30pm - - - - - SW 30 37 16 20 - - -
22/03:00pm - - - - - SW 28 33 15 18 - - -
22/02:30pm - - - - - SW 30 37 16 20 - - -
22/02:00pm - - - - - SW 26 33 14 18 - - -
22/01:30pm - - - - - SW 28 33 15 18 - - -
22/01:00pm - - - - - SW 26 33 14 18 - - -
22/12:30pm - - - - - SW 28 33 15 18 - - -
22/12:00pm - - - - - SW 24 30 13 16 - - -
22/11:30am - - - - - SW 20 28 11 15 - - -
22/11:00am - - - - - SW 20 26 11 14 - - -
22/10:30am - - - - - SW 15 19 8 10 - - -
22/10:00am - - - - - SW 17 20 9 11 - - -
22/09:30am - - - - - SSW 13 15 7 8 - - -
22/09:00am - - - - - SSE 11 15 6 8 - - -
22/08:30am - - - - - SSE 9 11 5 6 - - -
22/08:00am - - - - - SSE 11 13 6 7 - - -
22/07:30am - - - - - SSE 11 11 6 6 - - -
22/07:00am - - - - - SSE 9 13 5 7 - - -
22/06:30am - - - - - SSE 15 17 8 9 - - -
22/06:00am - - - - - SSE 15 17 8 9 - - -
22/05:30am - - - - - SSE 17 19 9 10 - - -
22/05:00am - - - - - SSE 19 24 10 13 - - -
22/04:30am - - - - - S 17 20 9 11 - - -
22/04:00am - - - - - S 22 26 12 14 - - -
22/03:30am - - - - - SW 15 19 8 10 - - -
22/03:00am - - - - - SW 17 20 9 11 - - -
22/02:30am - - - - - WSW 15 17 8 9 - - -
22/02:00am - - - - - ESE 9 13 5 7 - - -
22/01:30am - - - - - ESE 4 9 2 5 - - -
22/01:00am - - - - - E 11 13 6 7 - - -
22/12:30am - - - - - ESE 17 20 9 11 - - -
22/12:00am - - - - - ESE 19 22 10 12 - - -
 
Date/Time
CDT
Temp
°C
App
Temp
°C
Dew
Point
°C
Rel
Hum
%
Delta-T
°C
Wind Press
QNH
hPa
Press
MSL
hPa
Rain since
9am
mm
Dir  Spd
km/h
Gust
km/h
Spd
kts
Gust
kts
21/11:30pm - - - - - SE 20 26 11 14 - - -
21/11:00pm - - - - - SE 26 32 14 17 - - -
21/10:30pm - - - - - SE 22 28 12 15 - - -
21/10:00pm - - - - - SE 20 26 11 14 - - -
21/09:30pm - - - - - SE 28 37 15 20 - - -
21/09:00pm - - - - - SE 19 24 10 13 - - -

Other formats

Comma delimited format used in spreadsheet applications
http://www.bom.gov.au/fwo/IDS60801/IDS60801.94666.axf

JavaScript Object Notation format (JSON) in row-major order
http://www.bom.gov.au/fwo/IDS60801/IDS60801.94666.json

Data quality

Most of these data are generated automatically and are frequently updated. Quality checks on data are not normally performed. It is possible for incorrect values to appear. Refer to information at About Latest Weather Observations and please check the disclaimer before using these data.